Aktuell sind 46 Gäste und keine Mitglieder online

[source: ADDS]
METAR
EDVE 261750Z VRB03KT 9999 -TSRA FEW017 BKN022CB OVC071 13/13 Q1025 RETSRA

EDDV 261750Z 04006KT 9999 FEW028CB SCT048 14/12 Q1024 NOSIG

ETHS 261720Z 10005KT 7000 -TSRA SCT020CB BKN080 14/11 Q1025 WHT

ETHC 261720Z 04009KT 8000 FEW018CB BKN038 14/11 Q1025 BLU

EDVK 261750Z 06003KT CAVOK 12/12 Q1023

TAF
TAF EDVE 261700Z 2618/2621 09007KT 9999 SCT025 TEMPO 2618/2621 4000 SHRA BKN012CB PROB30 TEMPO 2618/2621 TSRA

TAF EDDV 261700Z 2618/2718 09007KT 9999 SCT025 TEMPO 2618/2621 4000 SHRA BKN012CB PROB30 TEMPO 2618/2621 TSRA PROB30 TEMPO 2621/2708 2500 BR BKN007 TEMPO 2708/2718 3500 SHRA BKN012CB PROB30 TEMPO 2711/2718 TSRA

TAF AMD ETHS 261438Z 2614/2623 10007KT 8000 NSW SCT018 BKN030 TEMPO 2614/2620 09005KT 6000 NSW BKN015 BKN025 PROB30 2614/2623 10012KT 3000 SHRA BKN006 BKN015CB BECMG 2620/2622 VRB03KT 4000 BR BKN010 CANCEL 1500

TAF AMD ETHC 261619Z 2614/2623 08008KT 8000 NSW SCT015 BKN030 BECMG 2621/2623 07006KT 5000 BR SCT030 BKN100 CANCEL 1630

TAF EDVK 261700Z 2618/2701 VRB03KT CAVOK

SR / SS: 05:11 / 17:06 UTC (EDVE 2017-09-26)
Christian und Dennis haben ihre PPL-Prüfung bestanden! Herzlichen Glückwunsch und always happy landings! +++ Steven hat seine praktische Prüfung bestanden! Herzlichen Glückwunsch! +++ Heinrich hat die Theorieprüfung bestanden! Herzlichen Glückwunsch! +++ Hallo und herzlich willkommen im Verein Felix! +++ Wir haben einen neuen Fluglehrer! Hallo Bernd, viel Spaß im Verein und mit deinen zukünftigen Schülern! +++ Florian hat seine PPL Prüfung bestanden! Herzlichen Glückwunsch und always happy landings! +++ Herzlich Willkommen im Verein Hakan! Viel Erfolg und Spaß bei deiner Ausbildung! +++ Wir begrüßen Harry als neues Mitglied im Verein! Herzlich Willkommen! +++ Ferdinand und Dennis haben die Theorieprüfung bestanden! Herzlichen Glückwunsch! +++ Neue Aquila 211 mit NVFR Zulassung und Glascockpit bestellt! ETA April 2017! +++ Herzlich Willkommen im Verein Mike! +++ Georg startet seine Ausbildung! Viel Erfolg und always happy landings! +++ Wir begrüßen Lasse als neues Mitglied im Verein und wünschen always happy landings! +++ Hallo und herzlichen Willkommen im Verein Thomas!

wenig -> mittel -> viel

Professionelle Piloten arbeiten mit Checkliste
Ausdrucken und abarbeiten! Vorbereitete Links helfen bei der Beschaffung der notwendigen Informationen.

Weiterlesen ...

 Zugang zur DFS. Auf dem FFG-Account sind alle erforderlichen Daten unserer Maschinen hinterlegt. Jedes Mitglied hat hier volle Rechte! Zugangsdaten gibt es im Internen Bereich.

Hier gibt es die AIP mit allen erforderlichen Karten die im Abo der FFG liegen zum Download für unsere Mitglieder.

Letztes NOTAM EDVE
von 04.10.2017 1400Z bis 04.10.2017 1800Z
AVGAS NOT AVBL.

Letztes NOTAM EDCB
von 14.09.2017 0844Z bis 28.10.2017 2359Z
AERODROME HOURS OF OPS/SERVICE CHANGED: 0700-1600, OTHER TIMES PPR.

Letztes NOTAM EDBC
von 06.09.2017 1437Z bis 05.12.2017 2359Z
ILS RWY 26 OUT OF SERVICE.

Letztes NOTAM EDVM
von 11.09.2017 0628Z bis 31.10.2017 2359Z
UP TO 5 CRANES WITH JIB (MAX 60M) 500M NNE OF ARP. MAX ELEV 495FT/196FT AGL. DAY AND NIGHT MARKED.

Letztes NOTAM EDVI
von 29.09.2017 2359Z bis 01.10.2017 2359Z
ASPH RWY 13/31 CLSD DUE TO EVENT. GRASS RWY AVBL WITH PPR.

Letztes NOTAM EDDV
von 11.10.2017 0730Z bis 11.10.2017 1030Z
NIENBURG VOR NIE 116.50 MHZ ON MAINTENANCE, DO NOT USE, FALSE INDICATION POSS.

Letztes NOTAM EDVK
von 25.09.2017 0800Z bis 14.10.2017 2200Z
APRON WIP

Letztes NOTAM ETHS
von 26.09.2017 0600Z bis 28.09.2017 0900Z
DAILY 0600-0900
PAR RWY27 OUT OF SERVICE.

EDCB.png          aerodata150     Radio38